Language selection

My Weather Profile Weather Topics  | 

Central Brevoort - southern half: Past 24 Hour Conditions

 

CFB Goose Bay

08:00 PM AST 05 February 2023
Disclaimer

This table is a summary of hourly weather conditions for the past 24 hours.
Please note that these observations might not always be representative of weather conditions over their associated marine area.

Date / Time
(AST)
Wind(knots) Conditions Visibility(km) Pressure(kPa) Air tempC) Relative humidity(%) Dew pointC) Wind Chill
05 February 2023
20:00 SW 4 Clear 24 101.3 -28 57 -34 -35
19:00 NW 3 Mainly Clear 24 101.2 -28 59 -33 -33
18:00 W 3 Partly Cloudy 24 101.1 -25 62 -30 -30
17:00 E 2 Partly Cloudy 24 101.1 -24 63 -29 -27
16:00 S 2 Light Snowshower 24 101.1 -21 58 -27 -24
15:00 W 5 Mostly Cloudy 24 101.1 -21 57 -27 -27
14:00 SW 5 Light Snowshower 3 101.1 -21 57 -28 -28
13:00 WSW 5 Cloudy 24 101.2 -23 50 -30 -30
12:00 SW 5 Mostly Cloudy 24 101.3 -24 49 -31 -31
11:00 WSW 12 gust 17 Mostly Cloudy 24 101.4 -25 46 -33 -37
10:00 SW 18 Mostly Cloudy 24 101.4 -26 48 -34 -41
9:00 SW 10 Mostly Cloudy 24 101.5 -28 50 -35 -39
8:00 SW 11 Mostly Cloudy 24 101.5 -28 46 -36 -41
7:00 SW 11 Mostly Cloudy 24 101.4 -28 47 -36 -40
6:00 WSW 13 Partly Cloudy 24 101.4 -27 45 -35 -40
5:00 WSW 12 gust 20 Mainly Clear 24 101.2 -26 48 -34 -39
4:00 WSW 14 Mostly Cloudy 24 101.1 -25 47 -33 -38
3:00 WSW 14 gust 20 Drifting Snow 24 100.9 -23 48 -31 -36
2:00 W 21 gust 29 Drifting Snow 24 100.7 -22 52 -29 -36
1:00 WSW 19 gust 24 Drifting Snow 24 100.5 -21 59 -26 -34
0:00 WSW 10 Cloudy 24 100.4 -18 60 -24 -28
04 February 2023
23:00 W 15 gust 26 Drifting Snow 24 100.1 -18 61 -24 -30
22:00 W 12 gust 26 Drifting Snow 24 99.8 -17 65 -22 -27
21:00 W 15 gust 31 Drifting Snow 11 99.3 -17 66 -22 -28
20:00 WNW 23 gust 33 Light Snow Shower and Blowing Snow 3 99.0 -16 71 -20 -29

Zoom-in to make a selection

Map of Atlantic - Labrador marine weather areas Kangiqsualujjuaq Airport Cape Kakkiviak Cape Kiglapait Cartwright Airport CFB Goose Bay Hopedale Mary's Harbour Nain Airport Makkovik Airport Saglek Tukialik Bay
Legend:
buoy Buoy
land station Land Station

Atlantic - Labrador Area

Another Region

What we are doing

Date modified: